Overview Statistics Trail Chart Weather Telemetry Raw packets
 

This is the latest recevied weather packets stored in our database for station/object STV2-WX. If no packets are shown the sender has not sent any weather packets the latest 10 day(s).

<< 1 2 3 4 >>
Time Temp. Humidity Pressure Rain* Wind** Luminosity Snow
1788715029 20° C 48% 1012.5 hPa - - - -
1788711429 20.56° C 45% 1011.7 hPa - - - -
1788707829 23.33° C 39% 1011.3 hPa - - - -
1788700630 26.11° C 33% 1011.5 hPa - - - -
1788697028 26.67° C 32% 1011.9 hPa - - - -
1788693429 26.67° C 33% 1012 hPa - - - -
1788689830 26.67° C 34% 1012.6 hPa - - - -
1788686228 26.11° C 36% 1013.2 hPa - - - -
1788682629 25° C 36% 1014.2 hPa - - - -
1788679029 23.89° C 41% 1015 hPa - - - -
1788675429 22.22° C 48% 1015.6 hPa - - - -
1788671829 20.56° C 55% 1015.9 hPa - - - -
1788668229 18.33° C 63% 1015.8 hPa - - - -
1788664630 15.56° C 71% 1016 hPa - - - -
1788661029 15.56° C 71% 1016.2 hPa - - - -
1788657429 15.56° C 69% 1016.4 hPa - - - -
1788653829 16.11° C 67% 1016.6 hPa - - - -
1788650263 16.67° C 63% 1016.7 hPa - - - -
1788646629 16.67° C 63% 1016.9 hPa - - - -
1788643029 17.22° C 62% 1016.8 hPa - - - -
1788639429 17.22° C 54% 1017.3 hPa - - - -
1788635829 17.78° C 49% 1017.3 hPa - - - -
1788632228 17.78° C 48% 1017.7 hPa - - - -
1788628629 18.89° C 49% 1017.1 hPa - - - -
1788625029 20° C 46% 1016.3 hPa - - - -

* Rain since midnight (hover to see other rain measurements)
** Current wind speed in m/s (hover to see current wind gust speed)